Time;durP1;ratioP1;P1;durP2;ratioP2;P2;SDS_P1;SDS_P2;PMS_P1;PMS_P2;Temp;Humidity;BMP_temperature;BMP_pressure;BME280_temperature;BME280_humidity;BME280_pressure;Samples;Min_cycle;Max_cycle;Signal;HPM_P1;HPM_P2
2021/12/15 00:00:36;;;;;;;;;;;24.10;52.60;;;;;;1572267;74;1167;-69
2021/12/15 00:02:37;;;;;;;;;;;24.20;52.50;;;;;;1562898;74;723;-69
2021/12/15 00:04:40;;;;;;;;;;;24.20;52.50;;;;;;1569513;74;800;-71
2021/12/15 00:06:42;;;;;;;;;;;24.20;52.50;;;;;;1571441;73;833;-70
2021/12/15 00:08:44;;;;;;;;;;;24.10;52.40;;;;;;1580899;74;786;-70
2021/12/15 00:10:48;;;;;;;;;;;24.20;52.40;;;;;;1569550;74;1144;-70
2021/12/15 00:12:50;;;;;;;;;;;24.20;52.30;;;;;;1571735;74;803;-69
2021/12/15 00:14:52;;;;;;;;;;;24.10;52.40;;;;;;1579149;73;803;-70
2021/12/15 00:16:54;;;;;;;;;;;24.10;52.30;;;;;;1579757;74;663;-70
2021/12/15 00:18:56;;;;;;;;;;;24.20;52.30;;;;;;1581262;73;1950;-68
2021/12/15 00:20:58;;;;;;;;;;;24.20;52.30;;;;;;1581687;74;1181;-69
2021/12/15 00:22:59;;;;;;;;;;;24.20;52.30;;;;;;1568481;74;821;-70
2021/12/15 00:25:01;;;;;;;;;;;24.20;52.30;;;;;;1571214;74;782;-69
2021/12/15 00:27:03;;;;;;;;;;;24.20;52.40;;;;;;1578180;74;707;-69
2021/12/15 00:29:06;;;;;;;;;;;24.10;52.30;;;;;;1575898;74;744;-69
2021/12/15 00:31:08;;;;;;;;;;;24.20;52.30;;;;;;1562713;74;1152;-71
2021/12/15 00:33:10;;;;;;;;;;;24.10;52.30;;;;;;1569341;74;693;-69
2021/12/15 00:35:12;;;;;;;;;;;24.10;52.30;;;;;;1574956;73;737;-69
2021/12/15 00:37:13;;;;;;;;;;;24.10;52.30;;;;;;1575771;74;1941;-69
2021/12/15 00:39:17;;;;;;;;;;;24.10;52.30;;;;;;1590349;74;655;-69
2021/12/15 00:41:19;;;;;;;;;;;24.10;52.40;;;;;;1574731;74;1133;-69
2021/12/15 00:43:21;;;;;;;;;;;24.10;52.30;;;;;;1564944;73;773;-69
2021/12/15 00:45:23;;;;;;;;;;;24.20;52.30;;;;;;1572242;74;777;-69
2021/12/15 00:47:24;;;;;;;;;;;24.10;52.40;;;;;;1575684;73;725;-69
2021/12/15 00:49:26;;;;;;;;;;;24.20;52.30;;;;;;1584473;74;650;-69
2021/12/15 00:51:29;;;;;;;;;;;24.10;52.30;;;;;;1587465;74;1190;-69
2021/12/15 00:53:31;;;;;;;;;;;24.00;52.30;;;;;;1567972;74;773;-68
2021/12/15 00:55:33;;;;;;;;;;;24.20;52.40;;;;;;1580121;74;723;-69
2021/12/15 00:57:35;;;;;;;;;;;24.20;52.30;;;;;;1567277;73;1979;-68
2021/12/15 00:59:37;;;;;;;;;;;24.10;52.30;;;;;;1571059;73;749;-69
2021/12/15 01:01:39;;;;;;;;;;;24.10;52.30;;;;;;1590105;74;1174;-70
2021/12/15 01:03:41;;;;;;;;;;;24.20;52.30;;;;;;1564648;74;781;-70
2021/12/15 01:05:44;;;;;;;;;;;24.20;52.40;;;;;;1568416;74;785;-71
2021/12/15 01:07:46;;;;;;;;;;;24.20;52.30;;;;;;1567964;74;752;-69
2021/12/15 01:09:55;;;;;;;;;;;24.10;52.30;;;;;;1566957;73;767;-69
2021/12/15 01:21:07;;;;;;;;;;;24.00;52.50;;;;;;1577509;74;1672;-70
2021/12/15 01:23:09;;;;;;;;;;;24.00;52.50;;;;;;1577280;73;596;-69
2021/12/15 01:25:15;;;;;;;;;;;24.10;52.60;;;;;;1578797;74;670;-68
2021/12/15 01:27:17;;;;;;;;;;;24.10;52.60;;;;;;1591641;74;747;-68
2021/12/15 01:29:19;;;;;;;;;;;24.10;52.60;;;;;;1589439;73;786;-69
2021/12/15 01:31:21;;;;;;;;;;;24.10;52.60;;;;;;1584492;73;1142;-69
2021/12/15 01:33:23;;;;;;;;;;;24.10;52.60;;;;;;1578734;74;661;-69
2021/12/15 01:35:25;;;;;;;;;;;24.10;52.60;;;;;;1577086;74;723;-68
2021/12/15 01:37:27;;;;;;;;;;;24.10;52.50;;;;;;1582977;74;712;-68
2021/12/15 01:39:29;;;;;;;;;;;24.00;52.30;;;;;;1566794;73;1928;-70
2021/12/15 01:41:31;;;;;;;;;;;24.10;52.50;;;;;;1562104;74;1142;-69
2021/12/15 01:46:52;;;;;;;;;;;24.10;52.60;;;;;;1567421;74;777;-69
2021/12/15 01:48:14;;;;;;;;;;;24.10;52.50;;;;;;1568287;73;1630;-69
2021/12/15 01:50:16;;;;;;;;;;;24.10;52.60;;;;;;1578421;74;1186;-69
2021/12/15 01:52:19;;;;;;;;;;;24.00;52.40;;;;;;1579177;74;780;-70
2021/12/15 01:54:21;;;;;;;;;;;24.00;52.30;;;;;;1589910;74;737;-69
2021/12/15 01:56:23;;;;;;;;;;;24.10;52.40;;;;;;1586395;74;730;-69
2021/12/15 01:58:25;;;;;;;;;;;24.00;52.30;;;;;;1569096;73;1962;-70
2021/12/15 02:00:28;;;;;;;;;;;24.00;52.30;;;;;;1573173;74;1151;-69
2021/12/15 02:02:30;;;;;;;;;;;24.10;52.40;;;;;;1575141;75;765;-69
2021/12/15 02:04:32;;;;;;;;;;;24.10;52.30;;;;;;1575688;73;753;-68
2021/12/15 02:06:34;;;;;;;;;;;24.10;52.30;;;;;;1577845;73;758;-69
2021/12/15 02:08:36;;;;;;;;;;;24.10;52.40;;;;;;1576181;74;730;-69
2021/12/15 02:10:39;;;;;;;;;;;24.10;52.40;;;;;;1586934;73;1134;-69
2021/12/15 02:12:41;;;;;;;;;;;24.10;52.30;;;;;;1590072;74;738;-70
2021/12/15 02:14:43;;;;;;;;;;;24.00;52.20;;;;;;1570967;73;873;-68
2021/12/15 02:16:45;;;;;;;;;;;24.10;52.30;;;;;;1567279;74;781;-69
2021/12/15 02:18:47;;;;;;;;;;;24.10;52.40;;;;;;1574614;73;1931;-70
2021/12/15 02:20:50;;;;;;;;;;;24.00;52.20;;;;;;1568889;74;1124;-69
2021/12/15 02:22:52;;;;;;;;;;;24.10;52.30;;;;;;1579051;74;763;-68
2021/12/15 02:24:54;;;;;;;;;;;24.10;52.40;;;;;;1563681;73;677;-68
2021/12/15 02:26:59;;;;;;;;;;;24.00;52.20;;;;;;1580109;74;890;-69
2021/12/15 02:29:00;;;;;;;;;;;24.10;52.30;;;;;;1592637;74;1669;-68
2021/12/15 02:31:20;;;;;;;;;;;24.10;52.30;;;;;;1589885;74;1120;-68
2021/12/15 02:37:44;;;;;;;;;;;24.00;52.20;;;;;;1566168;74;1650;-69
2021/12/15 02:39:48;;;;;;;;;;;24.00;52.20;;;;;;1588781;74;1926;-69
2021/12/15 02:41:50;;;;;;;;;;;24.00;52.20;;;;;;1576081;71;2075;-62
2021/12/15 02:43:53;;;;;;;;;;;24.00;52.20;;;;;;1578273;74;740;-63
2021/12/15 02:45:55;;;;;;;;;;;24.00;52.20;;;;;;1567127;74;728;-64
2021/12/15 02:47:57;;;;;;;;;;;24.00;52.10;;;;;;1578528;74;793;-63
2021/12/15 02:49:59;;;;;;;;;;;24.10;52.30;;;;;;1578672;74;787;-63
2021/12/15 02:52:01;;;;;;;;;;;24.10;52.30;;;;;;1576962;75;1173;-63
2021/12/15 02:54:03;;;;;;;;;;;24.00;52.10;;;;;;1577379;75;788;-63
2021/12/15 02:56:05;;;;;;;;;;;24.00;52.10;;;;;;1577496;74;692;-61
2021/12/15 02:58:07;;;;;;;;;;;24.00;52.10;;;;;;1576911;74;1926;-61
2021/12/15 03:00:22;;;;;;;;;;;24.00;52.10;;;;;;1577323;74;714;-62
2021/12/15 03:04:31;;;;;;;;;;;24.00;52.10;;;;;;1577723;75;859;-61
2021/12/15 03:06:45;;;;;;;;;;;24.00;52.10;;;;;;1577037;74;1597;-62
2021/12/15 03:08:53;;;;;;;;;;;24.10;52.30;;;;;;1571873;74;1696;-61
2021/12/15 03:17:35;;;;;;;;;;;24.00;52.20;;;;;;1577362;74;859;-62
2021/12/15 03:19:38;;;;;;;;;;;23.90;52.30;;;;;;1577485;75;1926;-62
2021/12/15 03:21:40;;;;;;;;;;;24.00;52.30;;;;;;1573053;75;1128;-60
2021/12/15 03:23:54;;;;;;;;;;;23.90;52.30;;;;;;1577393;74;722;-61
2021/12/15 03:25:57;;;;;;;;;;;23.90;52.20;;;;;;1577225;74;1519;-62
2021/12/15 03:39:24;;;;;;;;;;;24.00;52.30;;;;;;1576755;75;1899;-62
2021/12/15 03:41:26;;;;;;;;;;;24.00;52.30;;;;;;1577150;74;1144;-62
2021/12/15 03:43:28;;;;;;;;;;;24.00;52.20;;;;;;1577789;75;588;-61
2021/12/15 03:45:32;;;;;;;;;;;24.10;52.30;;;;;;1577440;75;676;-61
2021/12/15 03:47:34;;;;;;;;;;;24.00;52.10;;;;;;1577524;74;914;-62
2021/12/15 03:49:36;;;;;;;;;;;24.20;52.20;;;;;;1565046;75;804;-61
2021/12/15 03:51:38;;;;;;;;;;;24.20;52.10;;;;;;1577177;74;1081;-61
2021/12/15 03:53:40;;;;;;;;;;;24.10;52.00;;;;;;1573300;74;806;-59
2021/12/15 03:55:42;;;;;;;;;;;24.10;52.10;;;;;;1577342;74;730;-61
2021/12/15 03:57:44;;;;;;;;;;;24.20;52.00;;;;;;1577260;74;918;-61
2021/12/15 03:59:46;;;;;;;;;;;24.30;51.90;;;;;;1577425;74;1908;-62
2021/12/15 04:01:48;;;;;;;;;;;24.20;51.80;;;;;;1573893;74;1271;-62
2021/12/15 04:03:51;;;;;;;;;;;24.30;51.80;;;;;;1574279;74;788;-62
2021/12/15 04:05:54;;;;;;;;;;;24.30;51.80;;;;;;1574625;74;774;-62
2021/12/15 04:07:57;;;;;;;;;;;24.30;51.70;;;;;;1576923;74;753;-62
2021/12/15 04:09:59;;;;;;;;;;;24.30;51.70;;;;;;1577113;74;785;-62
2021/12/15 04:12:01;;;;;;;;;;;24.30;51.60;;;;;;1577684;74;1163;-62
2021/12/15 04:14:03;;;;;;;;;;;24.40;51.60;;;;;;1577349;74;571;-63
2021/12/15 04:16:08;;;;;;;;;;;24.30;51.60;;;;;;1577580;74;726;-63
2021/12/15 04:18:09;;;;;;;;;;;24.30;51.70;;;;;;1576644;74;1591;-63
2021/12/15 04:20:12;;;;;;;;;;;24.30;51.60;;;;;;1577447;74;1930;-63
2021/12/15 04:22:14;;;;;;;;;;;24.30;51.50;;;;;;1577058;75;1123;-61
2021/12/15 04:24:16;;;;;;;;;;;24.30;51.50;;;;;;1576751;74;626;-62
2021/12/15 04:26:18;;;;;;;;;;;24.40;51.40;;;;;;1576020;75;728;-64
2021/12/15 04:28:21;;;;;;;;;;;24.40;51.40;;;;;;1576987;74;721;-63
2021/12/15 04:30:24;;;;;;;;;;;24.30;51.40;;;;;;1577076;74;1178;-62
2021/12/15 04:32:30;;;;;;;;;;;24.30;51.50;;;;;;1575366;74;835;-63
2021/12/15 04:34:32;;;;;;;;;;;24.30;51.50;;;;;;1577610;74;749;-61
2021/12/15 04:36:35;;;;;;;;;;;24.20;51.30;;;;;;1579789;74;767;-62
2021/12/15 04:38:36;;;;;;;;;;;24.30;51.50;;;;;;1576718;75;1941;-62
2021/12/15 04:40:39;;;;;;;;;;;24.30;51.50;;;;;;1577465;74;1144;-63
2021/12/15 04:42:43;;;;;;;;;;;24.30;51.50;;;;;;1577303;75;783;-62
2021/12/15 04:44:44;;;;;;;;;;;24.30;51.50;;;;;;1576584;74;1472;-63
2021/12/15 04:46:47;;;;;;;;;;;24.20;51.40;;;;;;1577587;75;949;-62
2021/12/15 04:48:49;;;;;;;;;;;24.30;51.50;;;;;;1577814;74;770;-62
2021/12/15 04:50:51;;;;;;;;;;;24.30;51.50;;;;;;1577508;74;1153;-63
2021/12/15 04:52:53;;;;;;;;;;;24.20;51.40;;;;;;1577462;75;731;-64
2021/12/15 04:54:56;;;;;;;;;;;24.20;51.40;;;;;;1577485;74;671;-64
2021/12/15 04:56:58;;;;;;;;;;;24.20;51.40;;;;;;1577449;74;808;-63
2021/12/15 04:59:00;;;;;;;;;;;24.30;51.50;;;;;;1574904;74;1920;-63
2021/12/15 05:01:02;;;;;;;;;;;24.30;51.50;;;;;;1569485;74;1110;-63
2021/12/15 05:03:06;;;;;;;;;;;24.30;51.40;;;;;;1574801;75;792;-62
2021/12/15 05:05:08;;;;;;;;;;;24.30;51.40;;;;;;1576801;74;712;-63
2021/12/15 05:07:10;;;;;;;;;;;24.30;51.40;;;;;;1577567;74;775;-63
2021/12/15 05:09:14;;;;;;;;;;;24.30;51.40;;;;;;1580554;74;714;-62
2021/12/15 05:11:16;;;;;;;;;;;24.20;51.40;;;;;;1577074;74;1133;-61
2021/12/15 05:13:19;;;;;;;;;;;24.40;51.40;;;;;;1577283;74;719;-62
2021/12/15 05:15:21;;;;;;;;;;;24.30;51.40;;;;;;1577282;74;772;-63
2021/12/15 05:17:22;;;;;;;;;;;24.30;51.50;;;;;;1576529;74;767;-64
2021/12/15 05:19:26;;;;;;;;;;;24.30;51.30;;;;;;1572631;75;1943;-62
2021/12/15 05:21:30;;;;;;;;;;;24.30;51.30;;;;;;1577166;74;1969;-63
2021/12/15 05:23:32;;;;;;;;;;;24.30;51.30;;;;;;1577328;75;725;-62
2021/12/15 05:25:34;;;;;;;;;;;24.30;51.20;;;;;;1546017;76;1104;-62
2021/12/15 05:27:37;;;;;;;;;;;24.40;51.20;;;;;;1577117;74;725;-62
2021/12/15 05:29:39;;;;;;;;;;;24.30;51.20;;;;;;1575351;74;795;-63
2021/12/15 05:31:41;;;;;;;;;;;24.40;51.30;;;;;;1573144;74;1147;-64
2021/12/15 05:33:43;;;;;;;;;;;24.30;51.30;;;;;;1577148;74;830;-62
2021/12/15 05:35:45;;;;;;;;;;;24.30;51.30;;;;;;1577421;74;780;-59
2021/12/15 05:37:47;;;;;;;;;;;24.30;51.30;;;;;;1577040;74;786;-62
2021/12/15 05:39:50;;;;;;;;;;;24.40;51.10;;;;;;1577248;75;1945;-63
2021/12/15 05:41:52;;;;;;;;;;;24.40;51.10;;;;;;1577083;74;1116;-62
2021/12/15 05:43:54;;;;;;;;;;;24.40;51.00;;;;;;1572758;74;804;-62
2021/12/15 05:45:56;;;;;;;;;;;24.50;51.00;;;;;;1576532;74;748;-61
2021/12/15 05:47:58;;;;;;;;;;;24.50;50.80;;;;;;1581398;74;795;-62
2021/12/15 05:49:59;;;;;;;;;;;24.60;50.80;;;;;;1567096;74;777;-62
2021/12/15 05:52:01;;;;;;;;;;;24.50;50.60;;;;;;1577191;75;1109;-63
2021/12/15 05:54:05;;;;;;;;;;;24.60;50.70;;;;;;1577098;75;786;-62
2021/12/15 05:56:07;;;;;;;;;;;24.60;50.60;;;;;;1579052;74;1750;-65
2021/12/15 05:58:09;;;;;;;;;;;24.50;50.50;;;;;;1577521;74;765;-64
2021/12/15 06:00:12;;;;;;;;;;;24.60;50.60;;;;;;1577550;75;1939;-62
2021/12/15 06:02:14;;;;;;;;;;;24.50;50.50;;;;;;1571778;74;1221;-62
2021/12/15 06:04:16;;;;;;;;;;;24.50;50.60;;;;;;1580420;74;784;-61
2021/12/15 06:06:18;;;;;;;;;;;24.50;50.50;;;;;;1580052;75;712;-62
2021/12/15 06:08:20;;;;;;;;;;;24.60;50.50;;;;;;1577421;75;875;-63
2021/12/15 06:10:23;;;;;;;;;;;24.50;50.90;;;;;;1577642;75;1092;-63
2021/12/15 06:12:25;;;;;;;;;;;24.50;50.80;;;;;;1577531;74;783;-61
2021/12/15 06:14:28;;;;;;;;;;;24.40;50.80;;;;;;1577451;74;695;-63
2021/12/15 06:16:30;;;;;;;;;;;24.50;50.80;;;;;;1576784;75;685;-62
2021/12/15 06:18:31;;;;;;;;;;;24.50;50.70;;;;;;1578349;74;784;-62
2021/12/15 06:20:34;;;;;;;;;;;24.60;50.50;;;;;;1577516;75;1932;-63
2021/12/15 06:22:37;;;;;;;;;;;24.50;50.50;;;;;;1576170;75;741;-63
2021/12/15 06:24:39;;;;;;;;;;;24.40;50.60;;;;;;1577463;75;805;-64
2021/12/15 06:26:40;;;;;;;;;;;24.50;50.60;;;;;;1565711;74;767;-69
2021/12/15 06:28:42;;;;;;;;;;;24.50;50.80;;;;;;1577538;74;758;-65
2021/12/15 06:30:47;;;;;;;;;;;24.50;51.00;;;;;;1577384;74;1136;-63
2021/12/15 06:32:49;;;;;;;;;;;24.40;51.00;;;;;;1570865;74;835;-68
2021/12/15 06:34:51;;;;;;;;;;;24.50;51.00;;;;;;1576950;74;794;-60
2021/12/15 06:36:53;;;;;;;;;;;24.60;51.00;;;;;;1576892;74;780;-64
2021/12/15 06:38:55;;;;;;;;;;;24.50;51.10;;;;;;1577374;74;797;-61
2021/12/15 06:40:57;;;;;;;;;;;24.50;51.10;;;;;;1577227;74;1941;-63
2021/12/15 06:42:59;;;;;;;;;;;24.40;51.00;;;;;;1577211;75;803;-63
2021/12/15 06:45:01;;;;;;;;;;;24.40;51.00;;;;;;1577250;74;704;-64
2021/12/15 06:58:44;;;;;;;;;;;24.30;50.90;;;;;;1577350;75;1595;-62
2021/12/15 07:00:47;;;;;;;;;;;24.30;50.90;;;;;;1577543;75;1941;-61
2021/12/15 07:02:49;;;;;;;;;;;24.30;50.80;;;;;;1577359;74;810;-63
2021/12/15 07:04:51;;;;;;;;;;;24.20;50.70;;;;;;1576919;75;752;-62
2021/12/15 07:06:53;;;;;;;;;;;24.30;50.70;;;;;;1577221;74;632;-62
2021/12/15 07:08:54;;;;;;;;;;;24.30;50.70;;;;;;1577423;75;707;-62
2021/12/15 07:10:57;;;;;;;;;;;24.20;50.50;;;;;;1577440;74;1144;-62
2021/12/15 07:12:59;;;;;;;;;;;24.20;50.50;;;;;;1576842;75;719;-63
2021/12/15 07:15:00;;;;;;;;;;;24.20;50.40;;;;;;1577109;74;773;-63
2021/12/15 07:17:08;;;;;;;;;;;24.30;50.30;;;;;;1577460;74;680;-64
2021/12/15 07:21:23;;;;;;;;;;;24.10;49.40;;;;;;1577098;75;1918;-63
2021/12/15 07:23:25;;;;;;;;;;;24.10;49.20;;;;;;1577273;75;1657;-64
2021/12/15 07:25:27;;;;;;;;;;;24.00;48.60;;;;;;1574381;74;630;-65
2021/12/15 07:27:29;;;;;;;;;;;24.00;48.30;;;;;;1577477;75;678;-65
2021/12/15 07:29:31;;;;;;;;;;;23.90;48.10;;;;;;1577648;74;774;-66
2021/12/15 07:31:32;;;;;;;;;;;23.90;47.80;;;;;;1577445;75;1119;-65
2021/12/15 07:33:34;;;;;;;;;;;23.90;47.70;;;;;;1562035;75;791;-65
2021/12/15 07:35:36;;;;;;;;;;;23.90;47.60;;;;;;1577376;74;814;-64
2021/12/15 07:37:38;;;;;;;;;;;23.90;47.50;;;;;;1577630;74;730;-65
2021/12/15 07:39:47;;;;;;;;;;;23.90;47.40;;;;;;1575582;75;1947;-63
2021/12/15 07:41:52;;;;;;;;;;;23.80;47.20;;;;;;1575734;75;1629;-65
2021/12/15 07:43:53;;;;;;;;;;;23.70;47.10;;;;;;1577208;74;1644;-65
2021/12/15 07:46:02;;;;;;;;;;;23.70;47.10;;;;;;1577531;75;803;-62
2021/12/15 07:48:04;;;;;;;;;;;23.70;47.00;;;;;;1577370;74;788;-65
2021/12/15 07:50:06;;;;;;;;;;;23.70;47.10;;;;;;1577541;75;729;-65
2021/12/15 07:52:08;;;;;;;;;;;23.70;47.10;;;;;;1577671;74;1045;-66
2021/12/15 07:54:10;;;;;;;;;;;23.70;46.80;;;;;;1577362;74;749;-64
2021/12/15 07:56:12;;;;;;;;;;;23.60;46.60;;;;;;1577280;74;772;-65
2021/12/15 07:58:14;;;;;;;;;;;23.60;46.50;;;;;;1577475;74;781;-65
2021/12/15 08:00:16;;;;;;;;;;;23.60;46.30;;;;;;1577432;75;1935;-65
2021/12/15 08:02:18;;;;;;;;;;;23.60;46.20;;;;;;1577386;74;826;-66
2021/12/15 08:04:20;;;;;;;;;;;23.60;46.00;;;;;;1577087;74;884;-64
2021/12/15 08:06:23;;;;;;;;;;;23.60;46.00;;;;;;1576629;74;763;-65
2021/12/15 08:08:25;;;;;;;;;;;23.60;45.90;;;;;;1575952;74;1792;-67
2021/12/15 08:10:27;;;;;;;;;;;23.50;45.80;;;;;;1577491;74;1124;-67
2021/12/15 08:12:29;;;;;;;;;;;23.50;45.70;;;;;;1577688;75;768;-65
2021/12/15 08:14:31;;;;;;;;;;;23.50;45.70;;;;;;1577531;74;783;-64
2021/12/15 08:16:33;;;;;;;;;;;23.50;45.60;;;;;;1577496;74;784;-65
2021/12/15 08:18:35;;;;;;;;;;;23.50;45.50;;;;;;1577448;74;724;-65
2021/12/15 08:20:37;;;;;;;;;;;23.50;45.40;;;;;;1577380;74;1934;-66
2021/12/15 08:22:39;;;;;;;;;;;23.50;45.50;;;;;;1577065;75;758;-65
2021/12/15 08:24:40;;;;;;;;;;;23.50;45.40;;;;;;1573977;75;761;-66
2021/12/15 08:26:42;;;;;;;;;;;23.50;45.50;;;;;;1577056;74;697;-65
2021/12/15 08:28:44;;;;;;;;;;;23.40;45.40;;;;;;1577309;74;814;-67
2021/12/15 08:30:46;;;;;;;;;;;23.50;45.50;;;;;;1572929;74;1170;-65
2021/12/15 08:32:49;;;;;;;;;;;23.50;45.50;;;;;;1577478;75;769;-64
2021/12/15 08:34:51;;;;;;;;;;;23.50;45.50;;;;;;1577320;74;709;-66
2021/12/15 08:36:54;;;;;;;;;;;23.50;45.40;;;;;;1577439;74;598;-66
2021/12/15 08:38:56;;;;;;;;;;;23.50;45.40;;;;;;1577568;74;870;-65
2021/12/15 08:40:58;;;;;;;;;;;23.50;45.30;;;;;;1577435;71;2078;-68
2021/12/15 08:43:00;;;;;;;;;;;23.50;45.30;;;;;;1561159;75;720;-68
2021/12/15 08:45:01;;;;;;;;;;;23.50;45.30;;;;;;1553764;75;788;-69
2021/12/15 08:47:03;;;;;;;;;;;23.40;45.20;;;;;;1552100;75;776;-69
2021/12/15 08:49:06;;;;;;;;;;;23.40;45.00;;;;;;1553029;75;772;-70
2021/12/15 08:51:08;;;;;;;;;;;23.50;45.20;;;;;;1549626;75;1168;-69
2021/12/15 08:53:11;;;;;;;;;;;23.50;45.10;;;;;;1554078;75;690;-71
2021/12/15 08:55:13;;;;;;;;;;;23.50;45.10;;;;;;1546941;75;818;-69
2021/12/15 08:57:14;;;;;;;;;;;23.30;44.90;;;;;;1554569;75;689;-69
2021/12/15 08:59:16;;;;;;;;;;;23.40;44.80;;;;;;1544970;75;706;-69
2021/12/15 09:01:18;;;;;;;;;;;23.40;44.80;;;;;;1535957;75;1940;-70
2021/12/15 09:03:21;;;;;;;;;;;23.40;44.70;;;;;;1537364;77;797;-68
2021/12/15 09:05:23;;;;;;;;;;;23.30;44.70;;;;;;1545626;75;782;-68
2021/12/15 09:07:25;;;;;;;;;;;23.50;44.70;;;;;;1545240;75;688;-69
2021/12/15 09:09:27;;;;;;;;;;;23.40;44.50;;;;;;1537178;77;778;-69
2021/12/15 09:11:29;;;;;;;;;;;23.40;44.40;;;;;;1554290;75;1196;-68
2021/12/15 09:13:32;;;;;;;;;;;23.40;44.40;;;;;;1557484;75;724;-70
2021/12/15 09:15:33;;;;;;;;;;;23.40;44.40;;;;;;1549126;75;750;-69
2021/12/15 09:17:35;;;;;;;;;;;23.40;44.30;;;;;;1548277;75;725;-70
2021/12/15 09:19:37;;;;;;;;;;;23.50;44.40;;;;;;1545463;75;751;-69
2021/12/15 09:21:39;;;;;;;;;;;23.40;44.40;;;;;;1541893;75;1947;-69
2021/12/15 09:23:41;;;;;;;;;;;23.50;44.30;;;;;;1550379;75;774;-67
2021/12/15 09:25:43;;;;;;;;;;;23.50;44.30;;;;;;1545709;75;751;-70
2021/12/15 09:27:45;;;;;;;;;;;23.40;44.20;;;;;;1544911;75;740;-70
2021/12/15 09:29:47;;;;;;;;;;;23.40;44.10;;;;;;1557610;75;759;-69
2021/12/15 09:31:49;;;;;;;;;;;23.40;44.10;;;;;;1555470;75;1155;-69
2021/12/15 09:33:51;;;;;;;;;;;23.50;44.20;;;;;;1551901;75;902;-69
2021/12/15 09:35:53;;;;;;;;;;;23.40;44.10;;;;;;1552790;75;818;-69
2021/12/15 09:37:55;;;;;;;;;;;23.40;44.00;;;;;;1565409;75;770;-68
2021/12/15 09:39:57;;;;;;;;;;;23.40;44.00;;;;;;1558199;75;765;-69
2021/12/15 09:42:00;;;;;;;;;;;23.30;43.90;;;;;;1567040;75;1929;-69
2021/12/15 09:44:08;;;;;;;;;;;23.50;43.90;;;;;;1555634;75;807;-69
2021/12/15 09:46:29;;;;;;;;;;;23.50;43.90;;;;;;1557306;75;1659;-69
2021/12/15 10:02:25;;;;;;;;;;;23.40;43.60;;;;;;1549413;75;1899;-69
2021/12/15 10:04:24;;;;;;;;;;;23.30;43.50;;;;;;1556773;75;1707;-68
2021/12/15 10:06:32;;;;;;;;;;;23.30;43.70;;;;;;1546039;75;1663;-69
2021/12/15 10:17:43;;;;;;;;;;;23.30;43.40;;;;;;1552195;75;1641;-68
2021/12/15 10:19:41;;;;;;;;;;;23.30;43.50;;;;;;1550293;75;1725;-68
2021/12/15 10:21:45;;;;;;;;;;;23.30;43.50;;;;;;1557881;75;1918;-68
2021/12/15 10:23:49;;;;;;;;;;;23.30;43.40;;;;;;1542592;75;1333;-68
2021/12/15 10:25:53;;;;;;;;;;;23.30;43.40;;;;;;1556686;75;746;-68
2021/12/15 10:27:56;;;;;;;;;;;23.30;43.30;;;;;;1556211;75;1714;-69
2021/12/15 10:30:02;;;;;;;;;;;23.30;43.20;;;;;;1549839;75;1883;-68
2021/12/15 10:32:05;;;;;;;;;;;23.30;43.20;;;;;;1557565;75;1163;-68
2021/12/15 10:34:07;;;;;;;;;;;23.40;43.10;;;;;;1546402;75;833;-69
2021/12/15 10:36:10;;;;;;;;;;;23.30;43.10;;;;;;1523885;77;1315;-69
2021/12/15 10:38:18;;;;;;;;;;;23.40;43.10;;;;;;1552507;75;841;-70
2021/12/15 10:40:20;;;;;;;;;;;23.30;43.10;;;;;;1554092;75;806;-69
2021/12/15 10:42:29;;;;;;;;;;;23.30;42.90;;;;;;1555631;75;1941;-69
2021/12/15 10:44:31;;;;;;;;;;;23.40;43.00;;;;;;1555683;75;692;-69
2021/12/15 10:46:37;;;;;;;;;;;23.40;42.90;;;;;;1551130;75;910;-68
2021/12/15 10:48:46;;;;;;;;;;;23.30;42.80;;;;;;1558925;75;750;-68
2021/12/15 10:50:48;;;;;;;;;;;23.30;42.80;;;;;;1555997;75;1852;-68
2021/12/15 10:52:54;;;;;;;;;;;23.30;42.80;;;;;;1562401;75;788;-69
2021/12/15 10:54:59;;;;;;;;;;;23.30;42.80;;;;;;1556851;75;799;-73
2021/12/15 10:57:03;;;;;;;;;;;23.30;42.80;;;;;;1559483;75;1098;-69
2021/12/15 10:59:07;;;;;;;;;;;23.40;42.80;;;;;;1556640;75;763;-71
2021/12/15 11:01:27;;;;;;;;;;;23.30;42.90;;;;;;1553591;75;1964;-68
2021/12/15 11:03:33;;;;;;;;;;;23.40;42.80;;;;;;1558535;75;758;-69
2021/12/15 11:05:35;;;;;;;;;;;23.30;42.80;;;;;;1558969;75;741;-69
2021/12/15 11:07:40;;;;;;;;;;;23.40;42.70;;;;;;1554308;75;808;-69
2021/12/15 11:09:45;;;;;;;;;;;23.30;42.60;;;;;;1556760;75;789;-71
2021/12/15 11:11:57;;;;;;;;;;;23.30;42.70;;;;;;1554607;75;1154;-71
2021/12/15 11:13:59;;;;;;;;;;;23.30;42.70;;;;;;1552108;75;756;-72
2021/12/15 11:16:01;;;;;;;;;;;23.40;42.70;;;;;;1550888;75;724;-71
2021/12/15 11:18:05;;;;;;;;;;;23.30;42.60;;;;;;1521399;77;1232;-70
2021/12/15 11:20:09;;;;;;;;;;;23.30;42.60;;;;;;1554423;75;1070;-70
2021/12/15 11:22:28;;;;;;;;;;;23.40;42.40;;;;;;1548636;75;1947;-69
2021/12/15 11:24:36;;;;;;;;;;;23.30;42.50;;;;;;1553467;75;769;-70
2021/12/15 11:26:38;;;;;;;;;;;23.30;42.50;;;;;;1554596;75;735;-70
2021/12/15 11:28:41;;;;;;;;;;;23.30;42.50;;;;;;1555167;75;802;-69
2021/12/15 11:30:47;;;;;;;;;;;23.30;42.30;;;;;;1560940;75;1201;-70
2021/12/15 11:32:49;;;;;;;;;;;23.30;42.40;;;;;;1551513;75;760;-71
2021/12/15 11:35:05;;;;;;;;;;;23.30;42.50;;;;;;1551246;75;781;-70
2021/12/15 11:37:06;;;;;;;;;;;23.30;42.40;;;;;;1548610;75;710;-70
2021/12/15 11:39:10;;;;;;;;;;;23.30;42.30;;;;;;1558681;75;796;-70
2021/12/15 11:41:14;;;;;;;;;;;23.30;42.30;;;;;;1554245;75;1948;-71
2021/12/15 11:43:35;;;;;;;;;;;23.30;42.30;;;;;;1561943;75;1942;-69
2021/12/15 11:45:42;;;;;;;;;;;23.30;42.10;;;;;;1552440;75;893;-70
2021/12/15 11:47:44;;;;;;;;;;;23.20;42.10;;;;;;1541138;75;915;-70
2021/12/15 11:49:45;;;;;;;;;;;23.20;42.50;;;;;;1535299;75;747;-70
2021/12/15 11:51:48;;;;;;;;;;;23.10;42.90;;;;;;1546620;75;1209;-70
2021/12/15 11:53:51;;;;;;;;;;;23.10;43.20;;;;;;1558377;75;770;-71
2021/12/15 11:55:53;;;;;;;;;;;23.00;43.50;;;;;;1548291;75;741;-70
2021/12/15 11:57:55;;;;;;;;;;;23.10;43.90;;;;;;1548699;75;798;-71
2021/12/15 11:59:59;;;;;;;;;;;23.00;44.00;;;;;;1547702;77;751;-70
2021/12/15 12:02:19;;;;;;;;;;;23.00;44.20;;;;;;1539817;75;1929;-69
2021/12/15 12:04:22;;;;;;;;;;;23.00;44.40;;;;;;1562132;75;834;-71
2021/12/15 12:06:25;;;;;;;;;;;23.00;44.60;;;;;;1558394;75;840;-71
2021/12/15 12:08:27;;;;;;;;;;;23.00;44.80;;;;;;1561302;75;723;-70
2021/12/15 12:10:42;;;;;;;;;;;23.00;45.00;;;;;;1571909;75;878;-70
2021/12/15 12:12:49;;;;;;;;;;;23.00;45.10;;;;;;1563415;75;1670;-70
2021/12/15 12:14:51;;;;;;;;;;;23.00;45.20;;;;;;1550143;75;1635;-71
2021/12/15 12:16:53;;;;;;;;;;;23.00;45.30;;;;;;1554881;75;715;-70
2021/12/15 12:18:55;;;;;;;;;;;23.00;45.40;;;;;;1550622;75;784;-70
2021/12/15 12:20:58;;;;;;;;;;;23.00;45.50;;;;;;1557814;75;1090;-69
2021/12/15 12:23:02;;;;;;;;;;;23.00;45.70;;;;;;1554593;75;1937;-70
2021/12/15 12:25:17;;;;;;;;;;;23.10;45.90;;;;;;1557805;75;787;-70
2021/12/15 12:27:20;;;;;;;;;;;23.10;46.00;;;;;;1542324;75;733;-71
2021/12/15 12:29:22;;;;;;;;;;;23.10;46.10;;;;;;1550604;75;727;-69
2021/12/15 12:31:25;;;;;;;;;;;23.00;46.10;;;;;;1537279;76;1157;-69
2021/12/15 12:33:27;;;;;;;;;;;23.10;46.30;;;;;;1540524;75;681;-69
2021/12/15 12:35:30;;;;;;;;;;;23.00;46.30;;;;;;1543984;75;832;-69
2021/12/15 12:37:32;;;;;;;;;;;23.10;46.50;;;;;;1549469;75;767;-69
2021/12/15 12:39:34;;;;;;;;;;;23.10;46.60;;;;;;1545256;76;798;-69
2021/12/15 12:41:43;;;;;;;;;;;23.10;46.70;;;;;;1551087;75;1955;-69
2021/12/15 12:43:47;;;;;;;;;;;23.10;46.80;;;;;;1543120;75;820;-69
2021/12/15 12:46:14;;;;;;;;;;;23.10;46.90;;;;;;1557237;75;782;-71
2021/12/15 12:48:35;;;;;;;;;;;23.10;47.00;;;;;;1548668;75;1474;-71
2021/12/15 12:51:03;;;;;;;;;;;23.10;47.00;;;;;;1543183;75;1632;-70
2021/12/15 12:59:41;;;;;;;;;;;23.20;47.20;;;;;;1539214;75;1642;-70
2021/12/15 13:01:43;;;;;;;;;;;23.10;47.20;;;;;;1546363;75;1952;-70
2021/12/15 13:03:52;;;;;;;;;;;23.20;47.20;;;;;;1539318;75;786;-71
2021/12/15 13:05:55;;;;;;;;;;;23.20;47.00;;;;;;1557251;75;1616;-73
2021/12/15 13:07:58;;;;;;;;;;;23.40;46.90;;;;;;1557927;75;1387;-69
2021/12/15 13:09:59;;;;;;;;;;;23.40;46.80;;;;;;1537344;75;749;-72
2021/12/15 13:12:05;;;;;;;;;;;23.50;46.80;;;;;;1547816;75;1145;-70
2021/12/15 13:14:11;;;;;;;;;;;23.50;46.60;;;;;;1551826;75;1479;-70
2021/12/15 13:16:13;;;;;;;;;;;23.50;46.50;;;;;;1556367;75;720;-70
2021/12/15 13:18:16;;;;;;;;;;;23.60;46.30;;;;;;1544958;75;794;-70
2021/12/15 13:20:22;;;;;;;;;;;23.60;46.20;;;;;;1537816;75;661;-69
2021/12/15 13:29:22;;;;;;;;;;;23.90;45.70;;;;;;1518133;77;874;-69
2021/12/15 13:31:25;;;;;;;;;;;23.90;45.50;;;;;;1528342;75;1100;-69
2021/12/15 13:33:32;;;;;;;;;;;24.00;45.40;;;;;;1545858;75;701;-69
2021/12/15 13:35:39;;;;;;;;;;;24.10;45.20;;;;;;1557687;75;819;-70
2021/12/15 13:37:51;;;;;;;;;;;24.10;45.20;;;;;;1545032;75;1917;-70
2021/12/15 13:39:53;;;;;;;;;;;24.20;45.10;;;;;;1550118;75;761;-69
2021/12/15 13:42:03;;;;;;;;;;;24.20;45.00;;;;;;1552574;75;1950;-70